PWSweather.com
Personal Weather Stations
Station Observations
MOYOCK
2015 Caratoke Hwy, Moyock, NC 27958

2015 Caratoke HwyMoyock, NC 27958

Lat: 36.45462, Lon: -76.083127

Elevation: 5

Station Type: Davis Vantage Pro 2

www.moyockweather.com

High Low Average
Temperature 60.3°F15.7°C 49.6°F9.8°C 55.9°F13.3°C
Dew Point 58.3°F14.6°C 46.5°F8.1°C 50.9°F10.5°C
Winds 17.0 mph 27.4 kmh Calm Calm 8.0 mph SW12.9 kmh SW
Wind Gusts 24.0 mph38.6 kmh -- 14.0 mph22.5 kmh
Humidity 95% 72% 83%
Pressure 29.61 in1002.7 mb 29.47 in998.0 mb -
Precipitation 0.01 in0.3 mm - -
Hour Temp Dew Point Humidity Winds Wind Gusts Pressure Precip Precip Rate Daily Precip Total
12:01 AM 59.3°F15.2°C 57.3°F14.1°C 93% 10.0 mph S16.1 kmh S 20.0 mph32.2 kmh 29.49 in998.6 mb 0.01 in0.3 mm 0.60 in/hr15.2 mm/hr 0.01 in0.3 mm
12:10 AM 59.3°F15.2°C 57.3°F14.1°C 93% 13.0 mph S20.9 kmh S 20.0 mph32.2 kmh 29.49 in998.6 mb 0.01 in0.3 mm 0.00 in/hr0.0 mm/hr 0.01 in0.3 mm
12:20 AM 59.7°F15.4°C 57.7°F14.3°C 93% 12.0 mph SSW19.3 kmh SSW 20.0 mph32.2 kmh 29.49 in998.6 mb 0.01 in0.3 mm 0.00 in/hr0.0 mm/hr 0.01 in0.3 mm
12:30 AM 60.2°F15.7°C 57.9°F14.4°C 92% 6.0 mph S9.7 kmh S 14.0 mph22.5 kmh 29.49 in998.6 mb 0.01 in0.3 mm 0.00 in/hr0.0 mm/hr 0.01 in0.3 mm
12:40 AM 60.2°F15.7°C 57.9°F14.4°C 92% 8.0 mph S12.9 kmh S 20.0 mph32.2 kmh 29.48 in998.3 mb 0.01 in0.3 mm 0.00 in/hr0.0 mm/hr 0.01 in0.3 mm
12:50 AM 60.3°F15.7°C 58.3°F14.6°C 93% 13.0 mph S20.9 kmh S 21.0 mph33.8 kmh 29.48 in998.3 mb 0.01 in0.3 mm 0.00 in/hr0.0 mm/hr 0.01 in0.3 mm
01:00 AM 60.3°F15.7°C 58.3°F14.6°C 93% 14.0 mph SSW22.5 kmh SSW 18.0 mph29.0 kmh 29.47 in998.0 mb 0.00 in0.0 mm 0.00 in/hr0.0 mm/hr 0.01 in0.3 mm
01:10 AM 60.2°F15.7°C 58.2°F14.6°C 93% 10.0 mph SW16.1 kmh SW 18.0 mph29.0 kmh 29.48 in998.3 mb 0.00 in0.0 mm 0.00 in/hr0.0 mm/hr 0.01 in0.3 mm
01:20 AM 60.2°F15.7°C 58.2°F14.6°C 93% 8.0 mph S12.9 kmh S 24.0 mph38.6 kmh 29.48 in998.3 mb 0.00 in0.0 mm 0.00 in/hr0.0 mm/hr 0.01 in0.3 mm
01:30 AM 60.1°F15.6°C 58.1°F14.5°C 93% 8.0 mph SSW12.9 kmh SSW 9.0 mph14.5 kmh 29.48 in998.3 mb 0.00 in0.0 mm 0.00 in/hr0.0 mm/hr 0.01 in0.3 mm
01:40 AM 59.8°F15.4°C 58.1°F14.5°C 94% 9.0 mph SSW14.5 kmh SSW 14.0 mph22.5 kmh 29.48 in998.3 mb 0.00 in0.0 mm 0.00 in/hr0.0 mm/hr 0.01 in0.3 mm
01:50 AM 59.6°F15.3°C 57.9°F14.4°C 94% 14.0 mph SSW22.5 kmh SSW 15.0 mph24.1 kmh 29.48 in998.3 mb 0.00 in0.0 mm 0.00 in/hr0.0 mm/hr 0.01 in0.3 mm
02:00 AM 59.3°F15.2°C 57.6°F14.2°C 94% 6.0 mph SSW9.7 kmh SSW 9.0 mph14.5 kmh 29.48 in998.3 mb 0.00 in0.0 mm 0.00 in/hr0.0 mm/hr 0.01 in0.3 mm
02:10 AM 59.5°F15.3°C 58.1°F14.5°C 95% 4.0 mph SSW6.4 kmh SSW 10.0 mph16.1 kmh 29.49 in998.6 mb 0.00 in0.0 mm 0.00 in/hr0.0 mm/hr 0.01 in0.3 mm
02:20 AM 59.7°F15.4°C 58.3°F14.6°C 95% 5.0 mph SW8.0 kmh SW 12.0 mph19.3 kmh 29.49 in998.6 mb 0.00 in0.0 mm 0.00 in/hr0.0 mm/hr 0.01 in0.3 mm
02:30 AM 59.6°F15.3°C 57.9°F14.4°C 94% 5.0 mph WSW8.0 kmh WSW 7.0 mph11.3 kmh 29.49 in998.6 mb 0.00 in0.0 mm 0.00 in/hr0.0 mm/hr 0.01 in0.3 mm
02:40 AM 59.6°F15.3°C 57.6°F14.2°C 93% 6.0 mph WSW9.7 kmh WSW 14.0 mph22.5 kmh 29.49 in998.6 mb 0.00 in0.0 mm 0.00 in/hr0.0 mm/hr 0.01 in0.3 mm
02:50 AM 59.3°F15.2°C 57.3°F14.1°C 93% 10.0 mph WSW16.1 kmh WSW 18.0 mph29.0 kmh 29.49 in998.6 mb 0.00 in0.0 mm 0.00 in/hr0.0 mm/hr 0.01 in0.3 mm
03:00 AM 58.8°F14.9°C 56.8°F13.8°C 93% 9.0 mph SW14.5 kmh SW 12.0 mph19.3 kmh 29.49 in998.6 mb 0.00 in0.0 mm 0.00 in/hr0.0 mm/hr 0.01 in0.3 mm
03:10 AM 58.5°F14.7°C 56.5°F13.6°C 93% 11.0 mph WSW17.7 kmh WSW 14.0 mph22.5 kmh 29.48 in998.3 mb 0.00 in0.0 mm 0.00 in/hr0.0 mm/hr 0.01 in0.3 mm
03:30 AM 57.7°F14.3°C 55.1°F12.8°C 91% 11.0 mph W17.7 kmh W 15.0 mph24.1 kmh 29.49 in998.6 mb 0.00 in0.0 mm 0.00 in/hr0.0 mm/hr 0.01 in0.3 mm
03:40 AM 57.4°F14.1°C 55.1°F12.8°C 92% 13.0 mph WSW20.9 kmh WSW 16.0 mph25.7 kmh 29.49 in998.6 mb 0.00 in0.0 mm 0.00 in/hr0.0 mm/hr 0.01 in0.3 mm
03:50 AM 57.1°F13.9°C 54.5°F12.5°C 91% 17.0 mph WSW27.4 kmh WSW 18.0 mph29.0 kmh 29.49 in998.6 mb 0.00 in0.0 mm 0.00 in/hr0.0 mm/hr 0.01 in0.3 mm
04:00 AM 56.7°F13.7°C 54.1°F12.3°C 91% 12.0 mph WSW19.3 kmh WSW 15.0 mph24.1 kmh 29.49 in998.6 mb 0.00 in0.0 mm 0.00 in/hr0.0 mm/hr 0.01 in0.3 mm
04:10 AM 56.4°F13.6°C 53.8°F12.1°C 91% 9.0 mph WSW14.5 kmh WSW 21.0 mph33.8 kmh 29.50 in999.0 mb 0.00 in0.0 mm 0.00 in/hr0.0 mm/hr 0.01 in0.3 mm
04:20 AM 55.8°F13.2°C 53.2°F11.8°C 91% 14.0 mph WSW22.5 kmh WSW 21.0 mph33.8 kmh 29.50 in999.0 mb 0.00 in0.0 mm 0.00 in/hr0.0 mm/hr 0.01 in0.3 mm
04:30 AM 55.1°F12.8°C 51.0°F10.6°C 86% 16.0 mph WSW25.7 kmh WSW 17.0 mph27.4 kmh 29.50 in999.0 mb 0.00 in0.0 mm 0.00 in/hr0.0 mm/hr 0.01 in0.3 mm
04:40 AM 54.5°F12.5°C 50.1°F10.1°C 85% 14.0 mph WSW22.5 kmh WSW 22.0 mph35.4 kmh 29.51 in999.3 mb 0.00 in0.0 mm 0.00 in/hr0.0 mm/hr 0.01 in0.3 mm
04:50 AM 54.1°F12.3°C 49.4°F9.7°C 84% 14.0 mph W22.5 kmh W 22.0 mph35.4 kmh 29.51 in999.3 mb 0.00 in0.0 mm 0.00 in/hr0.0 mm/hr 0.01 in0.3 mm
05:00 AM 53.7°F12.1°C 49.3°F9.6°C 85% 12.0 mph WSW19.3 kmh WSW 14.0 mph22.5 kmh 29.51 in999.3 mb 0.00 in0.0 mm 0.00 in/hr0.0 mm/hr 0.01 in0.3 mm
05:10 AM 53.0°F11.7°C 48.9°F9.4°C 86% 15.0 mph WSW24.1 kmh WSW 19.0 mph30.6 kmh 29.52 in999.7 mb 0.00 in0.0 mm 0.00 in/hr0.0 mm/hr 0.01 in0.3 mm
05:20 AM 52.9°F11.6°C 48.8°F9.3°C 86% 16.0 mph WSW25.7 kmh WSW 19.0 mph30.6 kmh 29.53 in1000.0 mb 0.00 in0.0 mm 0.00 in/hr0.0 mm/hr 0.01 in0.3 mm
05:30 AM 52.7°F11.5°C 48.6°F9.2°C 86% 12.0 mph WSW19.3 kmh WSW 13.0 mph20.9 kmh 29.53 in1000.0 mb 0.00 in0.0 mm 0.00 in/hr0.0 mm/hr 0.01 in0.3 mm
05:40 AM 52.4°F11.3°C 48.7°F9.3°C 87% 12.0 mph WSW19.3 kmh WSW 16.0 mph25.7 kmh 29.53 in1000.0 mb 0.00 in0.0 mm 0.00 in/hr0.0 mm/hr 0.01 in0.3 mm
05:50 AM 52.0°F11.1°C 48.3°F9.1°C 87% 11.0 mph WSW17.7 kmh WSW 18.0 mph29.0 kmh 29.53 in1000.0 mb 0.00 in0.0 mm 0.00 in/hr0.0 mm/hr 0.01 in0.3 mm
06:00 AM 51.7°F10.9°C 47.7°F8.7°C 86% 15.0 mph WSW24.1 kmh WSW 15.0 mph24.1 kmh 29.54 in1000.3 mb 0.00 in0.0 mm 0.00 in/hr0.0 mm/hr 0.01 in0.3 mm
06:10 AM 51.3°F10.7°C 47.6°F8.7°C 87% 11.0 mph W17.7 kmh W 15.0 mph24.1 kmh 29.54 in1000.3 mb 0.00 in0.0 mm 0.00 in/hr0.0 mm/hr 0.01 in0.3 mm
06:20 AM 50.9°F10.5°C 47.5°F8.6°C 88% 9.0 mph WSW14.5 kmh WSW 15.0 mph24.1 kmh 29.55 in1000.7 mb 0.00 in0.0 mm 0.00 in/hr0.0 mm/hr 0.01 in0.3 mm
06:30 AM 50.8°F10.4°C 47.1°F8.4°C 87% 7.0 mph WSW11.3 kmh WSW 12.0 mph19.3 kmh 29.55 in1000.7 mb 0.00 in0.0 mm 0.00 in/hr0.0 mm/hr 0.01 in0.3 mm
06:40 AM 50.8°F10.4°C 47.1°F8.4°C 87% 8.0 mph WSW12.9 kmh WSW 16.0 mph25.7 kmh 29.55 in1000.7 mb 0.00 in0.0 mm 0.00 in/hr0.0 mm/hr 0.01 in0.3 mm
06:50 AM 50.1°F10.1°C 46.7°F8.2°C 88% 9.0 mph W14.5 kmh W 16.0 mph25.7 kmh 29.55 in1000.7 mb 0.00 in0.0 mm 0.00 in/hr0.0 mm/hr 0.01 in0.3 mm
07:00 AM 49.6°F9.8°C 46.5°F8.1°C 89% 7.0 mph WSW11.3 kmh WSW 9.0 mph14.5 kmh 29.56 in1001.0 mb 0.00 in0.0 mm 0.00 in/hr0.0 mm/hr 0.01 in0.3 mm
07:10 AM 49.7°F9.8°C 46.6°F8.1°C 89% 11.0 mph WSW17.7 kmh WSW 16.0 mph25.7 kmh 29.57 in1001.4 mb 0.00 in0.0 mm 0.00 in/hr0.0 mm/hr 0.01 in0.3 mm
07:20 AM 49.9°F9.9°C 46.5°F8.1°C 88% 9.0 mph WSW14.5 kmh WSW 16.0 mph25.7 kmh 29.57 in1001.4 mb 0.00 in0.0 mm 0.00 in/hr0.0 mm/hr 0.01 in0.3 mm
07:30 AM 49.8°F9.9°C 46.7°F8.2°C 89% 9.0 mph WSW14.5 kmh WSW 10.0 mph16.1 kmh 29.57 in1001.4 mb 0.00 in0.0 mm 0.00 in/hr0.0 mm/hr 0.01 in0.3 mm
07:40 AM 49.6°F9.8°C 46.5°F8.1°C 89% 6.0 mph WSW9.7 kmh WSW 12.0 mph19.3 kmh 29.58 in1001.7 mb 0.00 in0.0 mm 0.00 in/hr0.0 mm/hr 0.01 in0.3 mm
07:50 AM 49.8°F9.9°C 46.7°F8.2°C 89% 9.0 mph WSW14.5 kmh WSW 12.0 mph19.3 kmh 29.58 in1001.7 mb 0.00 in0.0 mm 0.00 in/hr0.0 mm/hr 0.01 in0.3 mm
08:00 AM 50.0°F10.0°C 46.9°F8.3°C 89% 6.0 mph WSW9.7 kmh WSW 8.0 mph12.9 kmh 29.58 in1001.7 mb 0.00 in0.0 mm 0.00 in/hr0.0 mm/hr 0.01 in0.3 mm
08:10 AM 50.1°F10.1°C 46.7°F8.2°C 88% 6.0 mph WSW9.7 kmh WSW 15.0 mph24.1 kmh 29.58 in1001.7 mb 0.00 in0.0 mm 0.00 in/hr0.0 mm/hr 0.01 in0.3 mm
08:20 AM 50.4°F10.2°C 47.0°F8.3°C 88% 4.0 mph WSW6.4 kmh WSW 15.0 mph24.1 kmh 29.58 in1001.7 mb 0.00 in0.0 mm 0.00 in/hr0.0 mm/hr 0.01 in0.3 mm
08:30 AM 50.7°F10.4°C 47.0°F8.3°C 87% 11.0 mph WSW17.7 kmh WSW 12.0 mph19.3 kmh 29.59 in1002.0 mb 0.00 in0.0 mm 0.00 in/hr0.0 mm/hr 0.01 in0.3 mm
08:40 AM 51.0°F10.6°C 47.3°F8.5°C 87% 9.0 mph WSW14.5 kmh WSW 15.0 mph24.1 kmh 29.59 in1002.0 mb 0.00 in0.0 mm 0.00 in/hr0.0 mm/hr 0.01 in0.3 mm
08:50 AM 51.2°F10.7°C 47.5°F8.6°C 87% 9.0 mph WSW14.5 kmh WSW 16.0 mph25.7 kmh 29.59 in1002.0 mb 0.00 in0.0 mm 0.00 in/hr0.0 mm/hr 0.01 in0.3 mm
09:00 AM 51.5°F10.8°C 47.5°F8.6°C 86% 9.0 mph WSW14.5 kmh WSW 12.0 mph19.3 kmh 29.60 in1002.4 mb 0.00 in0.0 mm 0.00 in/hr0.0 mm/hr 0.01 in0.3 mm
09:10 AM 51.8°F11.0°C 47.8°F8.8°C 86% 12.0 mph W19.3 kmh W 17.0 mph27.4 kmh 29.59 in1002.0 mb 0.00 in0.0 mm 0.00 in/hr0.0 mm/hr 0.01 in0.3 mm
09:20 AM 52.2°F11.2°C 48.2°F9.0°C 86% 11.0 mph WSW17.7 kmh WSW 17.0 mph27.4 kmh 29.59 in1002.0 mb 0.00 in0.0 mm 0.00 in/hr0.0 mm/hr 0.01 in0.3 mm
09:30 AM 52.4°F11.3°C 48.0°F8.9°C 85% 10.0 mph WSW16.1 kmh WSW 17.0 mph27.4 kmh 29.60 in1002.4 mb 0.00 in0.0 mm 0.00 in/hr0.0 mm/hr 0.01 in0.3 mm
09:40 AM 53.0°F11.7°C 48.6°F9.2°C 85% 6.0 mph WSW9.7 kmh WSW 17.0 mph27.4 kmh 29.60 in1002.4 mb 0.00 in0.0 mm 0.00 in/hr0.0 mm/hr 0.01 in0.3 mm
09:50 AM 53.3°F11.8°C 48.3°F9.1°C 83% 7.0 mph WSW11.3 kmh WSW 17.0 mph27.4 kmh 29.61 in1002.7 mb 0.00 in0.0 mm 0.00 in/hr0.0 mm/hr 0.01 in0.3 mm
10:00 AM 54.0°F12.2°C 49.0°F9.4°C 83% 6.0 mph SW9.7 kmh SW 7.0 mph11.3 kmh 29.60 in1002.4 mb 0.00 in0.0 mm 0.00 in/hr0.0 mm/hr 0.01 in0.3 mm
10:10 AM 54.4°F12.4°C 49.0°F9.4°C 82% 8.0 mph WSW12.9 kmh WSW 14.0 mph22.5 kmh 29.61 in1002.7 mb 0.00 in0.0 mm 0.00 in/hr0.0 mm/hr 0.01 in0.3 mm
10:20 AM 54.6°F12.6°C 49.2°F9.6°C 82% 10.0 mph WSW16.1 kmh WSW 16.0 mph25.7 kmh 29.61 in1002.7 mb 0.00 in0.0 mm 0.00 in/hr0.0 mm/hr 0.01 in0.3 mm
10:30 AM 54.8°F12.7°C 49.4°F9.7°C 82% 11.0 mph WSW17.7 kmh WSW 13.0 mph20.9 kmh 29.61 in1002.7 mb 0.00 in0.0 mm 0.00 in/hr0.0 mm/hr 0.01 in0.3 mm
10:40 AM 55.4°F13.0°C 49.7°F9.8°C 81% 10.0 mph WSW16.1 kmh WSW 16.0 mph25.7 kmh 29.61 in1002.7 mb 0.00 in0.0 mm 0.00 in/hr0.0 mm/hr 0.01 in0.3 mm
10:50 AM 55.6°F13.1°C 49.9°F9.9°C 81% 3.0 mph SW4.8 kmh SW 16.0 mph25.7 kmh 29.60 in1002.4 mb 0.00 in0.0 mm 0.00 in/hr0.0 mm/hr 0.01 in0.3 mm
11:00 AM 55.5°F13.1°C 49.4°F9.7°C 80% 2.0 mph WSW3.2 kmh WSW 8.0 mph12.9 kmh 29.58 in1001.7 mb 0.00 in0.0 mm 0.00 in/hr0.0 mm/hr 0.01 in0.3 mm
11:10 AM 56.2°F13.4°C 50.1°F10.1°C 80% 9.0 mph WSW14.5 kmh WSW 11.0 mph17.7 kmh 29.58 in1001.7 mb 0.00 in0.0 mm 0.00 in/hr0.0 mm/hr 0.01 in0.3 mm
11:20 AM 56.6°F13.7°C 49.8°F9.9°C 78% 3.0 mph WSW4.8 kmh WSW 11.0 mph17.7 kmh 29.58 in1001.7 mb 0.00 in0.0 mm 0.00 in/hr0.0 mm/hr 0.01 in0.3 mm
11:30 AM 57.2°F14.0°C 50.4°F10.2°C 78% 2.0 mph WSW3.2 kmh WSW 9.0 mph14.5 kmh 29.57 in1001.4 mb 0.00 in0.0 mm 0.00 in/hr0.0 mm/hr 0.01 in0.3 mm
11:40 AM 57.5°F14.2°C 50.0°F10.0°C 76% 8.0 mph WSW12.9 kmh WSW 14.0 mph22.5 kmh 29.57 in1001.4 mb 0.00 in0.0 mm 0.00 in/hr0.0 mm/hr 0.01 in0.3 mm
11:50 AM 58.2°F14.6°C 51.0°F10.6°C 77% 10.0 mph WSW16.1 kmh WSW 14.0 mph22.5 kmh 29.56 in1001.0 mb 0.00 in0.0 mm 0.00 in/hr0.0 mm/hr 0.01 in0.3 mm
12:01 PM 59.0°F15.0°C 51.8°F11.0°C 77% 6.0 mph W9.7 kmh W 6.0 mph9.7 kmh 29.56 in1001.0 mb 0.00 in0.0 mm 0.00 in/hr0.0 mm/hr 0.01 in0.3 mm
12:10 PM 59.0°F15.0°C 51.1°F10.6°C 75% 7.0 mph S11.3 kmh S 10.0 mph16.1 kmh 29.56 in1001.0 mb 0.00 in0.0 mm 0.00 in/hr0.0 mm/hr 0.01 in0.3 mm
12:20 PM 59.1°F15.1°C 50.8°F10.4°C 74% Calm Calm 15.0 mph24.1 kmh 29.56 in1001.0 mb 0.00 in0.0 mm 0.00 in/hr0.0 mm/hr 0.01 in0.3 mm
12:30 PM 59.3°F15.2°C 50.7°F10.4°C 73% 8.0 mph SSW12.9 kmh SSW 10.0 mph16.1 kmh 29.55 in1000.7 mb 0.00 in0.0 mm 0.00 in/hr0.0 mm/hr 0.01 in0.3 mm
12:40 PM 59.0°F15.0°C 51.1°F10.6°C 75% 7.0 mph SW11.3 kmh SW 13.0 mph20.9 kmh 29.56 in1001.0 mb 0.00 in0.0 mm 0.00 in/hr0.0 mm/hr 0.01 in0.3 mm
12:50 PM 58.3°F14.6°C 50.8°F10.4°C 76% 8.0 mph SW12.9 kmh SW 17.0 mph27.4 kmh 29.56 in1001.0 mb 0.00 in0.0 mm 0.00 in/hr0.0 mm/hr 0.01 in0.3 mm
01:00 PM 58.5°F14.7°C 50.6°F10.3°C 75% 5.0 mph SW8.0 kmh SW 12.0 mph19.3 kmh 29.56 in1001.0 mb 0.00 in0.0 mm 0.00 in/hr0.0 mm/hr 0.01 in0.3 mm
01:10 PM 57.8°F14.3°C 49.9°F9.9°C 75% 10.0 mph SSW16.1 kmh SSW 23.0 mph37.0 kmh 29.56 in1001.0 mb 0.00 in0.0 mm 0.00 in/hr0.0 mm/hr 0.01 in0.3 mm
01:20 PM 57.5°F14.2°C 50.4°F10.2°C 77% 6.0 mph SW9.7 kmh SW 23.0 mph37.0 kmh 29.56 in1001.0 mb 0.00 in0.0 mm 0.00 in/hr0.0 mm/hr 0.01 in0.3 mm
01:30 PM 58.5°F14.7°C 51.3°F10.7°C 77% 5.0 mph WSW8.0 kmh WSW 6.0 mph9.7 kmh 29.55 in1000.7 mb 0.00 in0.0 mm 0.00 in/hr0.0 mm/hr 0.01 in0.3 mm
01:40 PM 58.1°F14.5°C 50.9°F10.5°C 77% 10.0 mph SSW16.1 kmh SSW 22.0 mph35.4 kmh 29.55 in1000.7 mb 0.00 in0.0 mm 0.00 in/hr0.0 mm/hr 0.01 in0.3 mm
01:50 PM 58.8°F14.9°C 50.9°F10.5°C 75% 5.0 mph SW8.0 kmh SW 22.0 mph35.4 kmh 29.55 in1000.7 mb 0.00 in0.0 mm 0.00 in/hr0.0 mm/hr 0.01 in0.3 mm
02:01 PM 59.1°F15.1°C 51.2°F10.7°C 75% 16.0 mph SSW25.7 kmh SSW 18.0 mph29.0 kmh 29.54 in1000.3 mb 0.00 in0.0 mm 0.00 in/hr0.0 mm/hr 0.01 in0.3 mm
02:10 PM 58.6°F14.8°C 51.1°F10.6°C 76% 5.0 mph SSW8.0 kmh SSW 19.0 mph30.6 kmh 29.53 in1000.0 mb 0.00 in0.0 mm 0.00 in/hr0.0 mm/hr 0.01 in0.3 mm
02:20 PM 59.0°F15.0°C 51.1°F10.6°C 75% 11.0 mph SSW17.7 kmh SSW 19.0 mph30.6 kmh 29.53 in1000.0 mb 0.00 in0.0 mm 0.00 in/hr0.0 mm/hr 0.01 in0.3 mm
02:30 PM 59.2°F15.1°C 50.9°F10.5°C 74% 6.0 mph SW9.7 kmh SW 9.0 mph14.5 kmh 29.54 in1000.3 mb 0.00 in0.0 mm 0.00 in/hr0.0 mm/hr 0.01 in0.3 mm
02:40 PM 59.0°F15.0°C 51.1°F10.6°C 75% 5.0 mph WSW8.0 kmh WSW 17.0 mph27.4 kmh 29.53 in1000.0 mb 0.00 in0.0 mm 0.00 in/hr0.0 mm/hr 0.01 in0.3 mm
02:50 PM 58.9°F14.9°C 50.6°F10.3°C 74% 3.0 mph SW4.8 kmh SW 17.0 mph27.4 kmh 29.54 in1000.3 mb 0.00 in0.0 mm 0.00 in/hr0.0 mm/hr 0.01 in0.3 mm
03:01 PM 58.9°F14.9°C 50.6°F10.3°C 74% 7.0 mph SW11.3 kmh SW 9.0 mph14.5 kmh 29.55 in1000.7 mb 0.00 in0.0 mm 0.00 in/hr0.0 mm/hr 0.01 in0.3 mm
03:10 PM 59.3°F15.2°C 51.4°F10.8°C 75% 2.0 mph WSW3.2 kmh WSW 10.0 mph16.1 kmh 29.55 in1000.7 mb 0.00 in0.0 mm 0.00 in/hr0.0 mm/hr 0.01 in0.3 mm
03:20 PM 59.3°F15.2°C 50.7°F10.4°C 73% 5.0 mph WSW8.0 kmh WSW 16.0 mph25.7 kmh 29.55 in1000.7 mb 0.00 in0.0 mm 0.00 in/hr0.0 mm/hr 0.01 in0.3 mm
03:30 PM 58.9°F14.9°C 49.9°F9.9°C 72% 5.0 mph WSW8.0 kmh WSW 9.0 mph14.5 kmh 29.55 in1000.7 mb 0.00 in0.0 mm 0.00 in/hr0.0 mm/hr 0.01 in0.3 mm
03:40 PM 58.9°F14.9°C 50.3°F10.2°C 73% 10.0 mph WSW16.1 kmh WSW 13.0 mph20.9 kmh 29.55 in1000.7 mb 0.00 in0.0 mm 0.00 in/hr0.0 mm/hr 0.01 in0.3 mm
03:50 PM 58.7°F14.8°C 50.1°F10.1°C 73% 6.0 mph WSW9.7 kmh WSW 13.0 mph20.9 kmh 29.55 in1000.7 mb 0.00 in0.0 mm 0.00 in/hr0.0 mm/hr 0.01 in0.3 mm
04:00 PM 58.6°F14.8°C 50.0°F10.0°C 73% 4.0 mph SW6.4 kmh SW 9.0 mph14.5 kmh 29.55 in1000.7 mb 0.00 in0.0 mm 0.00 in/hr0.0 mm/hr 0.01 in0.3 mm
04:10 PM 58.4°F14.7°C 49.8°F9.9°C 73% Calm Calm 11.0 mph17.7 kmh 29.55 in1000.7 mb 0.00 in0.0 mm 0.00 in/hr0.0 mm/hr 0.01 in0.3 mm
04:20 PM 58.1°F14.5°C 49.5°F9.7°C 73% 5.0 mph SW8.0 kmh SW 11.0 mph17.7 kmh 29.55 in1000.7 mb 0.00 in0.0 mm 0.00 in/hr0.0 mm/hr 0.01 in0.3 mm
04:31 PM 57.7°F14.3°C 49.1°F9.5°C 73% Calm Calm 6.0 mph9.7 kmh 29.55 in1000.7 mb 0.00 in0.0 mm 0.00 in/hr0.0 mm/hr 0.01 in0.3 mm
04:40 PM 57.3°F14.1°C 49.1°F9.5°C 74% 4.0 mph WSW6.4 kmh WSW 7.0 mph11.3 kmh 29.56 in1001.0 mb 0.00 in0.0 mm 0.00 in/hr0.0 mm/hr 0.01 in0.3 mm
04:50 PM 56.7°F13.7°C 48.9°F9.4°C 75% Calm Calm 9.0 mph14.5 kmh 29.57 in1001.4 mb 0.00 in0.0 mm 0.00 in/hr0.0 mm/hr 0.01 in0.3 mm
05:00 PM 56.2°F13.4°C 48.8°F9.3°C 76% Calm Calm -- 29.56 in1001.0 mb 0.00 in0.0 mm 0.00 in/hr0.0 mm/hr 0.01 in0.3 mm
05:10 PM 55.6°F13.1°C 48.5°F9.2°C 77% Calm Calm 6.0 mph9.7 kmh 29.57 in1001.4 mb 0.00 in0.0 mm 0.00 in/hr0.0 mm/hr 0.01 in0.3 mm
05:20 PM 54.8°F12.7°C 48.4°F9.1°C 79% Calm Calm 6.0 mph9.7 kmh 29.57 in1001.4 mb 0.00 in0.0 mm 0.00 in/hr0.0 mm/hr 0.01 in0.3 mm
05:30 PM 54.8°F12.7°C 48.4°F9.1°C 79% 7.0 mph SW11.3 kmh SW 8.0 mph12.9 kmh 29.56 in1001.0 mb 0.00 in0.0 mm 0.00 in/hr0.0 mm/hr 0.01 in0.3 mm
05:40 PM 54.4°F12.4°C 48.0°F8.9°C 79% Calm Calm 8.0 mph12.9 kmh 29.56 in1001.0 mb 0.00 in0.0 mm 0.00 in/hr0.0 mm/hr 0.01 in0.3 mm
05:50 PM 54.1°F12.3°C 48.1°F8.9°C 80% 5.0 mph SSW8.0 kmh SSW 8.0 mph12.9 kmh 29.57 in1001.4 mb 0.00 in0.0 mm 0.00 in/hr0.0 mm/hr 0.01 in0.3 mm
06:01 PM 53.8°F12.1°C 47.8°F8.8°C 80% Calm Calm -- 29.57 in1001.4 mb 0.00 in0.0 mm 0.00 in/hr0.0 mm/hr 0.01 in0.3 mm
06:10 PM 53.6°F12.0°C 47.6°F8.7°C 80% 2.0 mph SW3.2 kmh SW 3.0 mph4.8 kmh 29.57 in1001.4 mb 0.00 in0.0 mm 0.00 in/hr0.0 mm/hr 0.01 in0.3 mm
06:20 PM 53.3°F11.8°C 47.6°F8.7°C 81% Calm Calm 7.0 mph11.3 kmh 29.58 in1001.7 mb 0.00 in0.0 mm 0.00 in/hr0.0 mm/hr 0.01 in0.3 mm
06:30 PM 53.0°F11.7°C 47.3°F8.5°C 81% Calm Calm -- 29.59 in1002.0 mb 0.00 in0.0 mm 0.00 in/hr0.0 mm/hr 0.01 in0.3 mm
06:40 PM 52.6°F11.4°C 47.3°F8.5°C 82% Calm Calm -- 29.59 in1002.0 mb 0.00 in0.0 mm 0.00 in/hr0.0 mm/hr 0.01 in0.3 mm
06:50 PM 52.6°F11.4°C 47.3°F8.5°C 82% Calm Calm 7.0 mph11.3 kmh 29.59 in1002.0 mb 0.00 in0.0 mm 0.00 in/hr0.0 mm/hr 0.01 in0.3 mm
07:00 PM 52.5°F11.4°C 47.2°F8.4°C 82% Calm Calm -- 29.59 in1002.0 mb 0.00 in0.0 mm 0.00 in/hr0.0 mm/hr 0.01 in0.3 mm
07:10 PM 52.4°F11.3°C 47.1°F8.4°C 82% Calm Calm 1.0 mph1.6 kmh 29.59 in1002.0 mb 0.00 in0.0 mm 0.00 in/hr0.0 mm/hr 0.01 in0.3 mm
07:20 PM 52.2°F11.2°C 47.2°F8.4°C 83% Calm Calm 2.0 mph3.2 kmh 29.59 in1002.0 mb 0.00 in0.0 mm 0.00 in/hr0.0 mm/hr 0.01 in0.3 mm
07:30 PM 52.1°F11.2°C 47.1°F8.4°C 83% 7.0 mph SW11.3 kmh SW 7.0 mph11.3 kmh 29.59 in1002.0 mb 0.00 in0.0 mm 0.00 in/hr0.0 mm/hr 0.01 in0.3 mm
07:40 PM 52.0°F11.1°C 47.0°F8.3°C 83% 5.0 mph SSW8.0 kmh SSW 11.0 mph17.7 kmh 29.58 in1001.7 mb 0.00 in0.0 mm 0.00 in/hr0.0 mm/hr 0.01 in0.3 mm
07:50 PM 51.7°F10.9°C 47.0°F8.3°C 84% 6.0 mph SSW9.7 kmh SSW 11.0 mph17.7 kmh 29.58 in1001.7 mb 0.00 in0.0 mm 0.00 in/hr0.0 mm/hr 0.01 in0.3 mm
08:00 PM 51.5°F10.8°C 47.2°F8.4°C 85% 8.0 mph SSW12.9 kmh SSW 10.0 mph16.1 kmh 29.59 in1002.0 mb 0.00 in0.0 mm 0.00 in/hr0.0 mm/hr 0.01 in0.3 mm
08:10 PM 51.5°F10.8°C 47.5°F8.6°C 86% 7.0 mph SSW11.3 kmh SSW 11.0 mph17.7 kmh 29.59 in1002.0 mb 0.00 in0.0 mm 0.00 in/hr0.0 mm/hr 0.01 in0.3 mm
08:20 PM 51.3°F10.7°C 47.6°F8.7°C 87% 12.0 mph SSW19.3 kmh SSW 15.0 mph24.1 kmh 29.58 in1001.7 mb 0.00 in0.0 mm 0.00 in/hr0.0 mm/hr 0.01 in0.3 mm
08:30 PM 51.4°F10.8°C 48.0°F8.9°C 88% 10.0 mph SSW16.1 kmh SSW 11.0 mph17.7 kmh 29.58 in1001.7 mb 0.00 in0.0 mm 0.00 in/hr0.0 mm/hr 0.01 in0.3 mm
08:40 PM 51.3°F10.7°C 47.9°F8.8°C 88% 4.0 mph SSW6.4 kmh SSW 15.0 mph24.1 kmh 29.59 in1002.0 mb 0.00 in0.0 mm 0.00 in/hr0.0 mm/hr 0.01 in0.3 mm
08:50 PM 50.9°F10.5°C 47.8°F8.8°C 89% Calm Calm 15.0 mph24.1 kmh 29.59 in1002.0 mb 0.00 in0.0 mm 0.00 in/hr0.0 mm/hr 0.01 in0.3 mm
09:00 PM 51.0°F10.6°C 48.2°F9.0°C 90% 3.0 mph SSW4.8 kmh SSW 8.0 mph12.9 kmh 29.59 in1002.0 mb 0.00 in0.0 mm 0.00 in/hr0.0 mm/hr 0.01 in0.3 mm
09:10 PM 50.9°F10.5°C 48.1°F8.9°C 90% 8.0 mph SW12.9 kmh SW 9.0 mph14.5 kmh 29.59 in1002.0 mb 0.00 in0.0 mm 0.00 in/hr0.0 mm/hr 0.01 in0.3 mm
09:20 PM 51.1°F10.6°C 48.3°F9.1°C 90% 9.0 mph SSW14.5 kmh SSW 13.0 mph20.9 kmh 29.59 in1002.0 mb 0.00 in0.0 mm 0.00 in/hr0.0 mm/hr 0.01 in0.3 mm
09:30 PM 51.0°F10.6°C 48.2°F9.0°C 90% 8.0 mph SSW12.9 kmh SSW 11.0 mph17.7 kmh 29.59 in1002.0 mb 0.00 in0.0 mm 0.00 in/hr0.0 mm/hr 0.01 in0.3 mm
09:40 PM 51.1°F10.6°C 48.0°F8.9°C 89% 9.0 mph SSW14.5 kmh SSW 16.0 mph25.7 kmh 29.59 in1002.0 mb 0.00 in0.0 mm 0.00 in/hr0.0 mm/hr 0.01 in0.3 mm
09:50 PM 51.0°F10.6°C 47.9°F8.8°C 89% 6.0 mph SW9.7 kmh SW 16.0 mph25.7 kmh 29.59 in1002.0 mb 0.00 in0.0 mm 0.00 in/hr0.0 mm/hr 0.01 in0.3 mm
10:00 PM 50.9°F10.5°C 48.1°F8.9°C 90% 2.0 mph S3.2 kmh S 5.0 mph8.0 kmh 29.59 in1002.0 mb 0.00 in0.0 mm 0.00 in/hr0.0 mm/hr 0.01 in0.3 mm
10:10 PM 51.0°F10.6°C 48.2°F9.0°C 90% 8.0 mph SSW12.9 kmh SSW 12.0 mph19.3 kmh 29.58 in1001.7 mb 0.00 in0.0 mm 0.00 in/hr0.0 mm/hr 0.01 in0.3 mm
10:20 PM 51.1°F10.6°C 48.0°F8.9°C 89% 5.0 mph SW8.0 kmh SW 12.0 mph19.3 kmh 29.58 in1001.7 mb 0.00 in0.0 mm 0.00 in/hr0.0 mm/hr 0.01 in0.3 mm
10:30 PM 51.1°F10.6°C 48.0°F8.9°C 89% 8.0 mph SW12.9 kmh SW 12.0 mph19.3 kmh 29.58 in1001.7 mb 0.00 in0.0 mm 0.00 in/hr0.0 mm/hr 0.01 in0.3 mm
10:40 PM 51.0°F10.6°C 48.2°F9.0°C 90% 3.0 mph SSW4.8 kmh SSW 12.0 mph19.3 kmh 29.58 in1001.7 mb 0.00 in0.0 mm 0.00 in/hr0.0 mm/hr 0.01 in0.3 mm
10:50 PM 51.0°F10.6°C 47.9°F8.8°C 89% 3.0 mph S4.8 kmh S 12.0 mph19.3 kmh 29.58 in1001.7 mb 0.00 in0.0 mm 0.00 in/hr0.0 mm/hr 0.01 in0.3 mm
11:00 PM 51.1°F10.6°C 48.0°F8.9°C 89% 4.0 mph SSW6.4 kmh SSW 10.0 mph16.1 kmh 29.57 in1001.4 mb 0.00 in0.0 mm 0.00 in/hr0.0 mm/hr 0.01 in0.3 mm
11:10 PM 51.3°F10.7°C 48.2°F9.0°C 89% 7.0 mph SSW11.3 kmh SSW 12.0 mph19.3 kmh 29.57 in1001.4 mb 0.00 in0.0 mm 0.00 in/hr0.0 mm/hr 0.01 in0.3 mm
11:20 PM 51.7°F10.9°C 48.6°F9.2°C 89% 8.0 mph SW12.9 kmh SW 16.0 mph25.7 kmh 29.56 in1001.0 mb 0.00 in0.0 mm 0.00 in/hr0.0 mm/hr 0.01 in0.3 mm
11:30 PM 51.9°F11.1°C 48.8°F9.3°C 89% 7.0 mph SSW11.3 kmh SSW 7.0 mph11.3 kmh 29.56 in1001.0 mb 0.00 in0.0 mm 0.00 in/hr0.0 mm/hr 0.01 in0.3 mm
11:40 PM 52.3°F11.3°C 48.9°F9.4°C 88% 13.0 mph SSW20.9 kmh SSW 19.0 mph30.6 kmh 29.55 in1000.7 mb 0.00 in0.0 mm 0.00 in/hr0.0 mm/hr 0.01 in0.3 mm
11:50 PM 52.8°F11.6°C 49.0°F9.4°C 87% 9.0 mph SW14.5 kmh SW 19.0 mph30.6 kmh 29.55 in1000.7 mb 0.00 in0.0 mm 0.00 in/hr0.0 mm/hr 0.01 in0.3 mm